Flinterduin — PEBT — position and weather

sailwx.info

Track history (hours):
 
Tides and Currents Weather Stations Pressure Air Temp Water Temp Dewpoint Dewpoint Depression Visibility Wind Speed Wind Dir Waves Ship Positions

Flinterduin

Last reported at 2018-May-22 17:29 UTC. Time now 2018-May-22 17:53 UTC.
Position N 53°30' E 014°37'.

Length 112 m; beam 15 m.

Type: Cargo ship. MMSI: 246484000.

Date/timePositionNaut miles runAvg speedWind from/ knotsBaromVisibWave heightAir tempDewpointWater temp
2018-May-22 17:29N 53°30' E 014°37'1 2.3
2018-May-22 16:58N 53°31' E 014°38'510.0
2018-May-22 16:26N 53°36' E 014°35'410.3
2018-May-22 16:00N 53°40' E 014°32'611.6
2018-May-22 15:30N 53°44' E 014°26'76 8.9
2018-May-22 07:01N 54°38' E 015°57'010.8
2018-May-22 07:00N 54°38' E 015°58'510.6
2018-May-22 06:30N 54°41' E 016°05'611.3
2018-May-22 06:00N 54°44' E 016°13'610.1
2018-May-22 05:27N 54°48' E 016°21'510.1
2018-May-22 04:55N 54°51' E 016°29'410.1
2018-May-22 04:28N 54°54' E 016°35'5 9.9
2018-May-22 04:00N 54°57' E 016°41'510.0
2018-May-22 03:30N 54°60' E 016°48'510.0
2018-May-22 03:00N 55°03' E 016°55'5 9.9
2018-May-22 02:30N 55°06' E 017°01'510.0
2018-May-22 02:00N 55°09' E 017°08'5 9.9
2018-May-22 01:30N 55°13' E 017°14'5 9.8
2018-May-22 01:00N 55°16' E 017°21'5 9.7
2018-May-22 00:30N 55°19' E 017°28'5 9.9
2018-May-22 00:00N 55°22' E 017°34'510.0
2018-May-21 23:30N 55°25' E 017°41'510.0
2018-May-21 22:59N 55°29' E 017°48'5 9.8
2018-May-21 22:30N 55°32' E 017°54'5 9.9
2018-May-21 22:00N 55°35' E 018°01'21110.5
2018-May-21 01:47N 58°39' E 021°11'310.3
2018-May-21 01:30N 58°42' E 021°13'1810.4
2018-May-20 23:48N 58°58' E 021°27'310.3
2018-May-20 23:30N 59°01' E 021°30'510.3
2018-May-20 23:00N 59°05' E 021°35'510.1
2018-May-20 22:30N 59°09' E 021°41'510.1
2018-May-20 22:00N 59°12' E 021°49'510.2
2018-May-20 21:30N 59°16' E 021°57'510.2
2018-May-20 21:00N 59°19' E 022°04'510.1
2018-May-20 20:30N 59°22' E 022°12'510.1
2018-May-20 20:00N 59°25' E 022°20'510.3
2018-May-20 19:30N 59°28' E 022°28'510.1
2018-May-20 19:00N 59°30' E 022°37'510.3
2018-May-20 18:30N 59°32' E 022°47'510.6
2018-May-20 18:00N 59°33' E 022°57'510.8
2018-May-20 17:30N 59°35' E 023°07'510.7
2018-May-20 17:00N 59°37' E 023°17'510.3
2018-May-20 16:29N 59°38' E 023°27'510.4
2018-May-20 16:00N 59°39' E 023°37'510.6
2018-May-20 15:30N 59°41' E 023°47'510.5
2018-May-20 15:00N 59°43' E 023°57'510.5
2018-May-20 14:30N 59°44' E 024°07'510.5
2018-May-20 14:00N 59°46' E 024°16'510.7
2018-May-20 13:30N 59°47' E 024°27'510.7
2018-May-20 13:00N 59°49' E 024°37'510.5
2018-May-20 12:30N 59°50' E 024°47'610.7
2018-May-20 11:58N 59°51' E 024°59'510.7
2018-May-20 11:30N 59°52' E 025°08'510.7
2018-May-20 11:00N 59°52' E 025°19'1010.5
2018-May-20 10:04N 59°54' E 025°38'110.6
2018-May-20 09:55N 59°54' E 025°41'510.6
2018-May-20 09:30N 59°55' E 025°50'610.6
2018-May-20 08:58N 59°57' E 026°01'510.5
2018-May-20 08:27N 59°58' E 026°11'510.7
2018-May-20 08:00N 59°59' E 026°20'510.8
2018-May-20 07:30N 60°01' E 026°31'510.0
2018-May-20 07:00N 60°01' E 026°41'510.5
2018-May-20 06:30N 60°00' E 026°51'511.1
2018-May-20 06:00N 59°59' E 027°02'510.5
2018-May-20 05:30N 60°02' E 027°11'510.4
2018-May-20 05:00N 60°05' E 027°20'510.4
2018-May-20 04:30N 60°07' E 027°29'510.4
2018-May-20 04:00N 60°10' E 027°38'510.3
2018-May-20 03:30N 60°12' E 027°47'510.7
2018-May-20 03:00N 60°11' E 027°58'510.6
2018-May-20 02:30N 60°09' E 028°08'510.4
2018-May-20 01:59N 60°07' E 028°18'510.6
2018-May-20 01:30N 60°04' E 028°26'510.5
2018-May-20 01:00N 60°02' E 028°36'510.7
2018-May-20 00:30N 59°57' E 028°35'4 9.0
2018-May-20 00:00N 59°53' E 028°30'612.1
2018-May-19 23:30N 59°48' E 028°25'510.5
2018-May-19 23:00N 59°43' E 028°24'2 3.4
2018-May-19 22:22N 59°41' E 028°25'0 0.0
2018-May-19 21:52N 59°41' E 028°25'0 0.0
2018-May-19 21:22N 59°41' E 028°25'0 0.0
2018-May-19 20:52N 59°41' E 028°25'0 0.0
2018-May-19 20:22N 59°41' E 028°25'0 0.0
2018-May-19 19:52N 59°41' E 028°25'0 0.0
2018-May-19 19:22N 59°41' E 028°25'0 0.0
2018-May-19 18:52N 59°41' E 028°25'0 0.0
2018-May-19 18:22N 59°41' E 028°25'0 0.0
2018-May-19 17:55N 59°41' E 028°25'0 0.0
2018-May-19 17:25N 59°41' E 028°25'0 0.0
2018-May-19 16:55N 59°41' E 028°25'0 0.0
2018-May-19 16:22N 59°41' E 028°25'0 0.0
2018-May-19 15:55N 59°41' E 028°25'0 0.0
2018-May-19 15:25N 59°41' E 028°25'0 0.0
2018-May-19 14:40N 59°41' E 028°25'0 0.0
2018-May-19 14:25N 59°41' E 028°25'0 0.0
2018-May-19 13:55N 59°41' E 028°25'0 0.0
2018-May-19 13:25N 59°41' E 028°25'0 0.0
2018-May-19 12:58N 59°41' E 028°25'0 0.0
2018-May-19 12:28N 59°41' E 028°25'0 0.0
2018-May-19 11:58N 59°41' E 028°25'0 0.0
2018-May-19 11:28N 59°41' E 028°25'0 0.0
2018-May-19 10:58N 59°41' E 028°25'0 0.0
2018-May-19 10:25N 59°41' E 028°25'0 0.0
2018-May-19 09:58N 59°41' E 028°25'0 0.0
2018-May-19 09:30N 59°41' E 028°25'0 0.0
2018-May-19 08:57N 59°41' E 028°25'0 0.0
2018-May-19 08:30N 59°41' E 028°25'0 0.0
2018-May-19 08:00N 59°41' E 028°25'0 0.0
2018-May-19 07:27N 59°41' E 028°25'0 0.0
2018-May-19 07:00N 59°41' E 028°25'0 0.0
2018-May-19 06:30N 59°41' E 028°25'0 0.0
2018-May-19 06:00N 59°41' E 028°25'0 0.0
2018-May-19 05:30N 59°41' E 028°25'0 0.0
2018-May-19 04:57N 59°41' E 028°25'0 0.0
2018-May-19 04:30N 59°41' E 028°25'0 0.0
2018-May-19 04:00N 59°41' E 028°25'0 0.0
2018-May-19 03:30N 59°41' E 028°25'0 0.0
2018-May-19 03:00N 59°41' E 028°25'0 0.0
2018-May-19 02:30N 59°41' E 028°25'0 0.0
2018-May-19 02:00N 59°41' E 028°25'0 0.0
2018-May-19 01:30N 59°41' E 028°25'0 0.0
2018-May-19 01:00N 59°41' E 028°25'0 0.0
2018-May-19 00:30N 59°41' E 028°25'0 0.0
2018-May-19 00:00N 59°41' E 028°25'0 0.0
2018-May-18 23:30N 59°41' E 028°25'0 0.0
2018-May-18 23:00N 59°41' E 028°25'0 0.0
2018-May-18 22:30N 59°41' E 028°25'0 0.0
2018-May-18 22:00N 59°41' E 028°25'0 0.0
2018-May-18 21:30N 59°41' E 028°25'0 0.0
2018-May-18 21:00N 59°41' E 028°25'0 0.0
2018-May-18 20:30N 59°41' E 028°25'0 0.0
2018-May-18 20:00N 59°41' E 028°25'0 0.0
2018-May-18 19:21N 59°41' E 028°25'0 0.0
2018-May-18 18:51N 59°41' E 028°25'0 0.0
2018-May-18 18:26N 59°41' E 028°25'0 0.0
2018-May-18 17:48N 59°41' E 028°25'0 0.4
2018-May-18 17:30N 59°41' E 028°25'3 7.0
2018-May-18 17:00N 59°44' E 028°23'612.5
2018-May-18 16:30N 59°50' E 028°26'613.0
2018-May-18 16:00N 59°56' E 028°32'4 7.2
2018-May-18 15:30N 59°59' E 028°33'4 8.8
2018-May-18 15:00N 60°03' E 028°27'610.7
2018-May-18 14:29N 60°06' E 028°18'511.1
2018-May-18 14:00N 60°08' E 028°09'611.3
2018-May-18 13:30N 60°09' E 027°58'611.4
2018-May-18 13:00N 60°11' E 027°46'510.7
2018-May-18 12:30N 60°08' E 027°37'510.7
2018-May-18 12:00N 60°05' E 027°28'510.9
2018-May-18 11:30N 60°02' E 027°18'611.0
2018-May-18 11:00N 59°59' E 027°09'611.8
2018-May-18 10:30N 59°58' E 026°58'611.5
2018-May-18 10:00N 59°59' E 026°47'510.0
2018-May-18 09:30N 59°59' E 026°37'611.1
2018-May-18 09:00N 59°57' E 026°26'611.4
2018-May-18 08:30N 59°56' E 026°15'2211.3
2018-May-18 06:36N 59°50' E 025°34'111.0
2018-May-18 06:30N 59°50' E 025°32'611.1
2018-May-18 05:59N 59°49' E 025°21'611.0
2018-May-18 05:29N 59°47' E 025°10'510.8
2018-May-18 05:00N 59°46' E 024°60'611.1
2018-May-18 04:30N 59°45' E 024°49'611.2
2018-May-18 04:00N 59°44' E 024°38'511.0
2018-May-18 03:30N 59°43' E 024°27'611.2
2018-May-18 03:00N 59°42' E 024°16'611.2
2018-May-18 02:29N 59°40' E 024°05'511.2
2018-May-18 02:00N 59°38' E 023°55'611.5
2018-May-18 01:30N 59°37' E 023°45'611.4
2018-May-18 01:00N 59°35' E 023°34'611.5
2018-May-18 00:30N 59°33' E 023°23'611.7
2018-May-18 00:00N 59°31' E 023°12'611.5
2018-May-17 23:30N 59°33' E 023°01'611.2
2018-May-17 23:00N 59°35' E 022°51'511.0
2018-May-17 22:30N 59°36' E 022°41'611.2
2018-May-17 22:00N 59°36' E 022°30'711.3
2018-May-17 21:26N 59°36' E 022°17'511.2
2018-May-17 21:00N 59°37' E 022°08'611.1
2018-May-17 20:30N 59°37' E 021°57'611.3
2018-May-17 20:00N 59°37' E 021°45'611.4
2018-May-17 19:30N 59°37' E 021°34'611.4
2018-May-17 19:00N 59°37' E 021°23'611.3
2018-May-17 18:30N 59°38' E 021°12'611.3
2018-May-17 18:00N 59°38' E 021°01'2611.0
2018-May-17 15:36N 59°45' E 020°10'211.7
2018-May-17 15:25N 59°45' E 020°06'511.7
2018-May-17 15:00N 59°45' E 019°56'611.5
2018-May-17 14:28N 59°46' E 019°44'511.7
2018-May-17 14:00N 59°50' E 019°37'611.7
2018-May-17 13:30N 59°54' E 019°29'711.7
2018-May-17 12:56N 59°59' E 019°20'511.6
2018-May-17 12:30N 60°03' E 019°13'611.6
2018-May-17 12:00N 60°07' E 019°06'611.3
2018-May-17 11:30N 60°12' E 019°01'611.9
2018-May-17 11:00N 60°18' E 018°60'611.7
2018-May-17 10:30N 60°24' E 018°59'1011.7
2018-May-17 09:40N 60°34' E 018°59'  
2018-May-15 04:55N 61°12' E 019°00'510.9
2018-May-15 04:29N 61°07' E 019°00'1910.9
2018-May-15 02:41N 60°47' E 019°01'210.7
2018-May-15 02:30N 60°45' E 019°01'510.8
2018-May-15 02:00N 60°40' E 019°01'610.9
2018-May-15 01:29N 60°34' E 019°01'510.9
2018-May-15 01:00N 60°29' E 019°01'610.8
2018-May-15 00:30N 60°24' E 019°01'610.9
2018-May-14 23:59N 60°18' E 019°01'510.6
2018-May-14 23:30N 60°13' E 019°04'510.6
2018-May-14 23:00N 60°09' E 019°11'510.7
2018-May-14 22:30N 60°05' E 019°18'510.8
2018-May-14 22:00N 60°01' E 019°25'510.8
2018-May-14 21:30N 59°56' E 019°31'611.2
2018-May-14 21:00N 59°52' E 019°38'611.1
2018-May-14 20:30N 59°48' E 019°45'510.8
2018-May-14 20:00N 59°44' E 019°53'610.4
2018-May-14 19:23N 59°39' E 020°02'  
Track history (hours):
 
Tides and Currents Weather Stations Pressure Air Temp Water Temp Dewpoint Dewpoint Depression Visibility Wind Speed Wind Dir Waves Ship Positions

Flinterduin

Last reported at 2018-May-22 17:29 UTC. Time now 2018-May-22 17:53 UTC.
Position N 53°30' E 014°37'.

Length 112 m; beam 15 m.

Type: Cargo ship. MMSI: 246484000.

Date/timePositionNaut miles runAvg speedWind from/ knotsBaromVisibWave heightAir tempDewpointWater temp
2018-May-22 17:29N 53°30' E 014°37'1 2.3
2018-May-22 16:58N 53°31' E 014°38'510.0
2018-May-22 16:26N 53°36' E 014°35'410.3
2018-May-22 16:00N 53°40' E 014°32'611.6
2018-May-22 15:30N 53°44' E 014°26'76 8.9
2018-May-22 07:01N 54°38' E 015°57'010.8
2018-May-22 07:00N 54°38' E 015°58'510.6
2018-May-22 06:30N 54°41' E 016°05'611.3
2018-May-22 06:00N 54°44' E 016°13'610.1
2018-May-22 05:27N 54°48' E 016°21'510.1
2018-May-22 04:55N 54°51' E 016°29'410.1
2018-May-22 04:28N 54°54' E 016°35'5 9.9
2018-May-22 04:00N 54°57' E 016°41'510.0
2018-May-22 03:30N 54°60' E 016°48'510.0
2018-May-22 03:00N 55°03' E 016°55'5 9.9
2018-May-22 02:30N 55°06' E 017°01'510.0
2018-May-22 02:00N 55°09' E 017°08'5 9.9
2018-May-22 01:30N 55°13' E 017°14'5 9.8
2018-May-22 01:00N 55°16' E 017°21'5 9.7
2018-May-22 00:30N 55°19' E 017°28'5 9.9
2018-May-22 00:00N 55°22' E 017°34'510.0
2018-May-21 23:30N 55°25' E 017°41'510.0
2018-May-21 22:59N 55°29' E 017°48'5 9.8
2018-May-21 22:30N 55°32' E 017°54'5 9.9
2018-May-21 22:00N 55°35' E 018°01'21110.5
2018-May-21 01:47N 58°39' E 021°11'310.3
2018-May-21 01:30N 58°42' E 021°13'1810.4
2018-May-20 23:48N 58°58' E 021°27'310.3
2018-May-20 23:30N 59°01' E 021°30'510.3
2018-May-20 23:00N 59°05' E 021°35'510.1
2018-May-20 22:30N 59°09' E 021°41'510.1
2018-May-20 22:00N 59°12' E 021°49'510.2
2018-May-20 21:30N 59°16' E 021°57'510.2
2018-May-20 21:00N 59°19' E 022°04'510.1
2018-May-20 20:30N 59°22' E 022°12'510.1
2018-May-20 20:00N 59°25' E 022°20'510.3
2018-May-20 19:30N 59°28' E 022°28'510.1
2018-May-20 19:00N 59°30' E 022°37'510.3
2018-May-20 18:30N 59°32' E 022°47'510.6
2018-May-20 18:00N 59°33' E 022°57'510.8
2018-May-20 17:30N 59°35' E 023°07'510.7
2018-May-20 17:00N 59°37' E 023°17'510.3
2018-May-20 16:29N 59°38' E 023°27'510.4
2018-May-20 16:00N 59°39' E 023°37'510.6
2018-May-20 15:30N 59°41' E 023°47'510.5
2018-May-20 15:00N 59°43' E 023°57'510.5
2018-May-20 14:30N 59°44' E 024°07'510.5
2018-May-20 14:00N 59°46' E 024°16'510.7
2018-May-20 13:30N 59°47' E 024°27'510.7
2018-May-20 13:00N 59°49' E 024°37'510.5
2018-May-20 12:30N 59°50' E 024°47'610.7
2018-May-20 11:58N 59°51' E 024°59'510.7
2018-May-20 11:30N 59°52' E 025°08'510.7
2018-May-20 11:00N 59°52' E 025°19'1010.5
2018-May-20 10:04N 59°54' E 025°38'110.6
2018-May-20 09:55N 59°54' E 025°41'510.6
2018-May-20 09:30N 59°55' E 025°50'610.6
2018-May-20 08:58N 59°57' E 026°01'510.5
2018-May-20 08:27N 59°58' E 026°11'510.7
2018-May-20 08:00N 59°59' E 026°20'510.8
2018-May-20 07:30N 60°01' E 026°31'510.0
2018-May-20 07:00N 60°01' E 026°41'510.5
2018-May-20 06:30N 60°00' E 026°51'511.1
2018-May-20 06:00N 59°59' E 027°02'510.5
2018-May-20 05:30N 60°02' E 027°11'510.4
2018-May-20 05:00N 60°05' E 027°20'510.4
2018-May-20 04:30N 60°07' E 027°29'510.4
2018-May-20 04:00N 60°10' E 027°38'510.3
2018-May-20 03:30N 60°12' E 027°47'510.7
2018-May-20 03:00N 60°11' E 027°58'510.6
2018-May-20 02:30N 60°09' E 028°08'510.4
2018-May-20 01:59N 60°07' E 028°18'510.6
2018-May-20 01:30N 60°04' E 028°26'510.5
2018-May-20 01:00N 60°02' E 028°36'510.7
2018-May-20 00:30N 59°57' E 028°35'4 9.0
2018-May-20 00:00N 59°53' E 028°30'612.1
2018-May-19 23:30N 59°48' E 028°25'510.5
2018-May-19 23:00N 59°43' E 028°24'2 3.4
2018-May-19 22:22N 59°41' E 028°25'0 0.0
2018-May-19 21:52N 59°41' E 028°25'0 0.0
2018-May-19 21:22N 59°41' E 028°25'0 0.0
2018-May-19 20:52N 59°41' E 028°25'0 0.0
2018-May-19 20:22N 59°41' E 028°25'0 0.0
2018-May-19 19:52N 59°41' E 028°25'0 0.0
2018-May-19 19:22N 59°41' E 028°25'0 0.0
2018-May-19 18:52N 59°41' E 028°25'0 0.0
2018-May-19 18:22N 59°41' E 028°25'0 0.0
2018-May-19 17:55N 59°41' E 028°25'0 0.0
2018-May-19 17:25N 59°41' E 028°25'0 0.0
2018-May-19 16:55N 59°41' E 028°25'0 0.0
2018-May-19 16:22N 59°41' E 028°25'0 0.0
2018-May-19 15:55N 59°41' E 028°25'0 0.0
2018-May-19 15:25N 59°41' E 028°25'0 0.0
2018-May-19 14:40N 59°41' E 028°25'0 0.0
2018-May-19 14:25N 59°41' E 028°25'0 0.0
2018-May-19 13:55N 59°41' E 028°25'0 0.0
2018-May-19 13:25N 59°41' E 028°25'0 0.0
2018-May-19 12:58N 59°41' E 028°25'0 0.0
2018-May-19 12:28N 59°41' E 028°25'0 0.0
2018-May-19 11:58N 59°41' E 028°25'0 0.0
2018-May-19 11:28N 59°41' E 028°25'0 0.0
2018-May-19 10:58N 59°41' E 028°25'0 0.0
2018-May-19 10:25N 59°41' E 028°25'0 0.0
2018-May-19 09:58N 59°41' E 028°25'0 0.0
2018-May-19 09:30N 59°41' E 028°25'0 0.0
2018-May-19 08:57N 59°41' E 028°25'0 0.0
2018-May-19 08:30N 59°41' E 028°25'0 0.0
2018-May-19 08:00N 59°41' E 028°25'0 0.0
2018-May-19 07:27N 59°41' E 028°25'0 0.0
2018-May-19 07:00N 59°41' E 028°25'0 0.0
2018-May-19 06:30N 59°41' E 028°25'0 0.0
2018-May-19 06:00N 59°41' E 028°25'0 0.0
2018-May-19 05:30N 59°41' E 028°25'0 0.0
2018-May-19 04:57N 59°41' E 028°25'0 0.0
2018-May-19 04:30N 59°41' E 028°25'0 0.0
2018-May-19 04:00N 59°41' E 028°25'0 0.0
2018-May-19 03:30N 59°41' E 028°25'0 0.0
2018-May-19 03:00N 59°41' E 028°25'0 0.0
2018-May-19 02:30N 59°41' E 028°25'0 0.0
2018-May-19 02:00N 59°41' E 028°25'0 0.0
2018-May-19 01:30N 59°41' E 028°25'0 0.0
2018-May-19 01:00N 59°41' E 028°25'0 0.0
2018-May-19 00:30N 59°41' E 028°25'0 0.0
2018-May-19 00:00N 59°41' E 028°25'0 0.0
2018-May-18 23:30N 59°41' E 028°25'0 0.0
2018-May-18 23:00N 59°41' E 028°25'0 0.0
2018-May-18 22:30N 59°41' E 028°25'0 0.0
2018-May-18 22:00N 59°41' E 028°25'0 0.0
2018-May-18 21:30N 59°41' E 028°25'0 0.0
2018-May-18 21:00N 59°41' E 028°25'0 0.0
2018-May-18 20:30N 59°41' E 028°25'0 0.0
2018-May-18 20:00N 59°41' E 028°25'0 0.0
2018-May-18 19:21N 59°41' E 028°25'0 0.0
2018-May-18 18:51N 59°41' E 028°25'0 0.0
2018-May-18 18:26N 59°41' E 028°25'0 0.0
2018-May-18 17:48N 59°41' E 028°25'0 0.4
2018-May-18 17:30N 59°41' E 028°25'3 7.0
2018-May-18 17:00N 59°44' E 028°23'612.5
2018-May-18 16:30N 59°50' E 028°26'613.0
2018-May-18 16:00N 59°56' E 028°32'4 7.2
2018-May-18 15:30N 59°59' E 028°33'4 8.8
2018-May-18 15:00N 60°03' E 028°27'610.7
2018-May-18 14:29N 60°06' E 028°18'511.1
2018-May-18 14:00N 60°08' E 028°09'611.3
2018-May-18 13:30N 60°09' E 027°58'611.4
2018-May-18 13:00N 60°11' E 027°46'510.7
2018-May-18 12:30N 60°08' E 027°37'510.7
2018-May-18 12:00N 60°05' E 027°28'510.9
2018-May-18 11:30N 60°02' E 027°18'611.0
2018-May-18 11:00N 59°59' E 027°09'611.8
2018-May-18 10:30N 59°58' E 026°58'611.5
2018-May-18 10:00N 59°59' E 026°47'510.0
2018-May-18 09:30N 59°59' E 026°37'611.1
2018-May-18 09:00N 59°57' E 026°26'611.4
2018-May-18 08:30N 59°56' E 026°15'2211.3
2018-May-18 06:36N 59°50' E 025°34'111.0
2018-May-18 06:30N 59°50' E 025°32'611.1
2018-May-18 05:59N 59°49' E 025°21'611.0
2018-May-18 05:29N 59°47' E 025°10'510.8
2018-May-18 05:00N 59°46' E 024°60'611.1
2018-May-18 04:30N 59°45' E 024°49'611.2
2018-May-18 04:00N 59°44' E 024°38'511.0
2018-May-18 03:30N 59°43' E 024°27'611.2
2018-May-18 03:00N 59°42' E 024°16'611.2
2018-May-18 02:29N 59°40' E 024°05'511.2
2018-May-18 02:00N 59°38' E 023°55'611.5
2018-May-18 01:30N 59°37' E 023°45'611.4
2018-May-18 01:00N 59°35' E 023°34'611.5
2018-May-18 00:30N 59°33' E 023°23'611.7
2018-May-18 00:00N 59°31' E 023°12'611.5
2018-May-17 23:30N 59°33' E 023°01'611.2
2018-May-17 23:00N 59°35' E 022°51'511.0
2018-May-17 22:30N 59°36' E 022°41'611.2
2018-May-17 22:00N 59°36' E 022°30'711.3
2018-May-17 21:26N 59°36' E 022°17'511.2
2018-May-17 21:00N 59°37' E 022°08'611.1
2018-May-17 20:30N 59°37' E 021°57'611.3
2018-May-17 20:00N 59°37' E 021°45'611.4
2018-May-17 19:30N 59°37' E 021°34'611.4
2018-May-17 19:00N 59°37' E 021°23'611.3
2018-May-17 18:30N 59°38' E 021°12'611.3
2018-May-17 18:00N 59°38' E 021°01'2611.0
2018-May-17 15:36N 59°45' E 020°10'211.7
2018-May-17 15:25N 59°45' E 020°06'511.7
2018-May-17 15:00N 59°45' E 019°56'611.5
2018-May-17 14:28N 59°46' E 019°44'511.7
2018-May-17 14:00N 59°50' E 019°37'611.7
2018-May-17 13:30N 59°54' E 019°29'711.7
2018-May-17 12:56N 59°59' E 019°20'511.6
2018-May-17 12:30N 60°03' E 019°13'611.6
2018-May-17 12:00N 60°07' E 019°06'611.3
2018-May-17 11:30N 60°12' E 019°01'611.9
2018-May-17 11:00N 60°18' E 018°60'611.7
2018-May-17 10:30N 60°24' E 018°59'1011.7
2018-May-17 09:40N 60°34' E 018°59'  
2018-May-15 04:55N 61°12' E 019°00'510.9
2018-May-15 04:29N 61°07' E 019°00'1910.9
2018-May-15 02:41N 60°47' E 019°01'210.7
2018-May-15 02:30N 60°45' E 019°01'510.8
2018-May-15 02:00N 60°40' E 019°01'610.9
2018-May-15 01:29N 60°34' E 019°01'510.9
2018-May-15 01:00N 60°29' E 019°01'610.8
2018-May-15 00:30N 60°24' E 019°01'610.9
2018-May-14 23:59N 60°18' E 019°01'510.6
2018-May-14 23:30N 60°13' E 019°04'510.6
2018-May-14 23:00N 60°09' E 019°11'510.7
2018-May-14 22:30N 60°05' E 019°18'510.8
2018-May-14 22:00N 60°01' E 019°25'510.8
2018-May-14 21:30N 59°56' E 019°31'611.2
2018-May-14 21:00N 59°52' E 019°38'611.1
2018-May-14 20:30N 59°48' E 019°45'510.8
2018-May-14 20:00N 59°44' E 019°53'610.4
2018-May-14 19:23N 59°39' E 020°02'  

Dump ship's entire track history